sensor_id;sensor_type;location;lat;lon;timestamp;pressure;altitude;pressure_sealevel;temperature;humidity
4586;BME280;2305;50.118;8.952;2024-01-10T00:00:01;101832.38;;;-3.75;100.00
4586;BME280;2305;50.118;8.952;2024-01-10T00:02:30;101840.13;;;-3.84;100.00
4586;BME280;2305;50.118;8.952;2024-01-10T00:04:59;101829.81;;;-3.78;100.00
4586;BME280;2305;50.118;8.952;2024-01-10T00:07:28;101824.69;;;-3.74;100.00
4586;BME280;2305;50.118;8.952;2024-01-10T00:09:56;101831.53;;;-3.77;100.00
4586;BME280;2305;50.118;8.952;2024-01-10T00:12:26;101822.09;;;-3.80;100.00
4586;BME280;2305;50.118;8.952;2024-01-10T00:15:00;101822.94;;;-3.82;100.00
4586;BME280;2305;50.118;8.952;2024-01-10T00:17:28;101827.25;;;-3.84;100.00
4586;BME280;2305;50.118;8.952;2024-01-10T00:20:01;101820.38;;;-3.81;100.00
4586;BME280;2305;50.118;8.952;2024-01-10T00:22:29;101816.06;;;-3.95;100.00
4586;BME280;2305;50.118;8.952;2024-01-10T00:24:58;101816.09;;;-3.86;100.00
4586;BME280;2305;50.118;8.952;2024-01-10T00:27:26;101818.66;;;-3.80;100.00
4586;BME280;2305;50.118;8.952;2024-01-10T00:29:55;101812.63;;;-3.88;100.00
4586;BME280;2305;50.118;8.952;2024-01-10T00:32:24;101814.38;;;-3.98;100.00
4586;BME280;2305;50.118;8.952;2024-01-10T00:34:52;101816.09;;;-3.97;100.00
4586;BME280;2305;50.118;8.952;2024-01-10T00:37:22;101807.50;;;-3.88;100.00
4586;BME280;2305;50.118;8.952;2024-01-10T00:39:50;101816.06;;;-3.98;100.00
4586;BME280;2305;50.118;8.952;2024-01-10T00:42:18;101816.94;;;-3.98;100.00
4586;BME280;2305;50.118;8.952;2024-01-10T00:44:48;101814.34;;;-3.96;100.00
4586;BME280;2305;50.118;8.952;2024-01-10T00:47:17;101809.22;;;-3.95;100.00
4586;BME280;2305;50.118;8.952;2024-01-10T00:49:46;101813.50;;;-3.95;100.00
4586;BME280;2305;50.118;8.952;2024-01-10T00:52:13;101808.34;;;-4.00;100.00
4586;BME280;2305;50.118;8.952;2024-01-10T00:54:44;101810.06;;;-4.03;100.00
4586;BME280;2305;50.118;8.952;2024-01-10T00:57:15;101803.22;;;-4.07;100.00
4586;BME280;2305;50.118;8.952;2024-01-10T00:59:44;101814.38;;;-4.08;100.00
4586;BME280;2305;50.118;8.952;2024-01-10T01:02:12;101807.47;;;-4.08;100.00
4586;BME280;2305;50.118;8.952;2024-01-10T01:04:41;101799.75;;;-4.09;100.00
4586;BME280;2305;50.118;8.952;2024-01-10T01:07:10;101798.91;;;-4.10;100.00
4586;BME280;2305;50.118;8.952;2024-01-10T01:09:38;101803.22;;;-4.01;100.00
4586;BME280;2305;50.118;8.952;2024-01-10T01:12:08;101805.78;;;-4.03;100.00
4586;BME280;2305;50.118;8.952;2024-01-10T01:14:36;101801.47;;;-4.07;100.00
4586;BME280;2305;50.118;8.952;2024-01-10T01:17:07;101796.34;;;-3.99;100.00
4586;BME280;2305;50.118;8.952;2024-01-10T01:19:35;101794.63;;;-4.05;100.00
4586;BME280;2305;50.118;8.952;2024-01-10T01:22:04;101801.47;;;-4.11;100.00
4586;BME280;2305;50.118;8.952;2024-01-10T01:24:34;101798.03;;;-4.15;100.00
4586;BME280;2305;50.118;8.952;2024-01-10T01:27:08;101804.03;;;-4.16;100.00
4586;BME280;2305;50.118;8.952;2024-01-10T01:29:39;101794.63;;;-4.11;100.00
4586;BME280;2305;50.118;8.952;2024-01-10T01:32:09;101805.78;;;-4.12;100.00
4586;BME280;2305;50.118;8.952;2024-01-10T01:34:37;101795.50;;;-4.03;100.00
4586;BME280;2305;50.118;8.952;2024-01-10T01:37:05;101798.03;;;-4.10;100.00
4586;BME280;2305;50.118;8.952;2024-01-10T01:39:34;101795.47;;;-4.13;100.00
4586;BME280;2305;50.118;8.952;2024-01-10T01:42:02;101797.19;;;-4.06;100.00
4586;BME280;2305;50.118;8.952;2024-01-10T01:44:32;101794.63;;;-4.02;100.00
4586;BME280;2305;50.118;8.952;2024-01-10T01:47:01;101787.75;;;-4.06;100.00
4586;BME280;2305;50.118;8.952;2024-01-10T01:49:29;101790.34;;;-4.07;100.00
4586;BME280;2305;50.118;8.952;2024-01-10T01:51:59;101788.63;;;-4.14;100.00
4586;BME280;2305;50.118;8.952;2024-01-10T01:54:31;101791.16;;;-4.17;100.00
4586;BME280;2305;50.118;8.952;2024-01-10T01:56:59;101790.34;;;-4.13;100.00
4586;BME280;2305;50.118;8.952;2024-01-10T01:59:28;101785.16;;;-4.16;100.00
4586;BME280;2305;50.118;8.952;2024-01-10T02:02:00;101785.19;;;-4.18;100.00
4586;BME280;2305;50.118;8.952;2024-01-10T02:04:31;101780.03;;;-4.19;100.00
4586;BME280;2305;50.118;8.952;2024-01-10T02:06:59;101783.44;;;-4.17;100.00
4586;BME280;2305;50.118;8.952;2024-01-10T02:09:27;101781.75;;;-4.18;100.00
4586;BME280;2305;50.118;8.952;2024-01-10T02:11:55;101781.72;;;-4.27;100.00
4586;BME280;2305;50.118;8.952;2024-01-10T02:14:24;101787.75;;;-4.22;100.00
4586;BME280;2305;50.118;8.952;2024-01-10T02:16:54;101774.03;;;-4.21;100.00
4586;BME280;2305;50.118;8.952;2024-01-10T02:19:24;101774.00;;;-4.20;100.00
4586;BME280;2305;50.118;8.952;2024-01-10T02:21:55;101769.75;;;-4.22;100.00
4586;BME280;2305;50.118;8.952;2024-01-10T02:24:23;101781.75;;;-4.26;100.00
4586;BME280;2305;50.118;8.952;2024-01-10T02:26:55;101781.75;;;-4.23;100.00
4586;BME280;2305;50.118;8.952;2024-01-10T02:29:42;101780.88;;;-4.26;100.00
4586;BME280;2305;50.118;8.952;2024-01-10T02:32:11;101781.72;;;-4.27;100.00
4586;BME280;2305;50.118;8.952;2024-01-10T02:34:39;101773.16;;;-4.29;100.00
4586;BME280;2305;50.118;8.952;2024-01-10T02:37:08;101767.16;;;-4.25;100.00
4586;BME280;2305;50.118;8.952;2024-01-10T02:39:37;101757.72;;;-4.28;100.00
4586;BME280;2305;50.118;8.952;2024-01-10T02:42:08;101757.72;;;-4.29;100.00
4586;BME280;2305;50.118;8.952;2024-01-10T02:44:37;101764.59;;;-4.28;100.00
4586;BME280;2305;50.118;8.952;2024-01-10T02:47:06;101768.00;;;-4.28;100.00
4586;BME280;2305;50.118;8.952;2024-01-10T02:49:36;101765.44;;;-4.28;100.00
4586;BME280;2305;50.118;8.952;2024-01-10T02:52:05;101772.31;;;-4.32;100.00
4586;BME280;2305;50.118;8.952;2024-01-10T02:54:36;101756.00;;;-4.33;100.00
4586;BME280;2305;50.118;8.952;2024-01-10T02:57:04;101762.84;;;-4.34;100.00
4586;BME280;2305;50.118;8.952;2024-01-10T02:59:33;101764.56;;;-4.36;100.00
4586;BME280;2305;50.118;8.952;2024-01-10T03:02:01;101749.97;;;-4.38;100.00
4586;BME280;2305;50.118;8.952;2024-01-10T03:04:30;101748.28;;;-4.39;100.00
4586;BME280;2305;50.118;8.952;2024-01-10T03:06:58;101747.44;;;-4.39;100.00
4586;BME280;2305;50.118;8.952;2024-01-10T03:09:27;101742.25;;;-4.43;100.00
4586;BME280;2305;50.118;8.952;2024-01-10T03:11:55;101743.09;;;-4.45;100.00
4586;BME280;2305;50.118;8.952;2024-01-10T03:14:23;101742.25;;;-4.43;100.00
4586;BME280;2305;50.118;8.952;2024-01-10T03:16:52;101741.41;;;-4.42;100.00
4586;BME280;2305;50.118;8.952;2024-01-10T03:19:21;101741.41;;;-4.42;100.00
4586;BME280;2305;50.118;8.952;2024-01-10T03:21:49;101737.13;;;-4.41;100.00
4586;BME280;2305;50.118;8.952;2024-01-10T03:24:17;101740.56;;;-4.42;100.00
4586;BME280;2305;50.118;8.952;2024-01-10T03:26:45;101738.84;;;-4.37;100.00
4586;BME280;2305;50.118;8.952;2024-01-10T03:29:13;101742.25;;;-4.38;100.00
4586;BME280;2305;50.118;8.952;2024-01-10T03:31:41;101738.00;;;-4.38;100.00
4586;BME280;2305;50.118;8.952;2024-01-10T03:34:11;101738.84;;;-4.40;100.00
4586;BME280;2305;50.118;8.952;2024-01-10T03:36:39;101734.56;;;-4.41;100.00
4586;BME280;2305;50.118;8.952;2024-01-10T03:39:07;101734.53;;;-4.43;100.00
4586;BME280;2305;50.118;8.952;2024-01-10T03:41:37;101732.84;;;-4.38;100.00
4586;BME280;2305;50.118;8.952;2024-01-10T03:44:11;101726.00;;;-4.38;100.00
4586;BME280;2305;50.118;8.952;2024-01-10T03:46:41;101725.13;;;-4.43;100.00
4586;BME280;2305;50.118;8.952;2024-01-10T03:49:10;101719.13;;;-4.43;100.00
4586;BME280;2305;50.118;8.952;2024-01-10T03:51:39;101723.44;;;-4.38;100.00
4586;BME280;2305;50.118;8.952;2024-01-10T03:54:08;101730.25;;;-4.43;100.00
4586;BME280;2305;50.118;8.952;2024-01-10T03:56:38;101719.09;;;-4.44;100.00
4586;BME280;2305;50.118;8.952;2024-01-10T03:59:06;101730.25;;;-4.45;100.00
4586;BME280;2305;50.118;8.952;2024-01-10T04:01:34;101729.41;;;-4.41;100.00
4586;BME280;2305;50.118;8.952;2024-01-10T04:04:02;101721.69;;;-4.44;100.00
4586;BME280;2305;50.118;8.952;2024-01-10T04:06:32;101716.56;;;-4.45;100.00
4586;BME280;2305;50.118;8.952;2024-01-10T04:09:00;101719.13;;;-4.45;100.00
4586;BME280;2305;50.118;8.952;2024-01-10T04:11:31;101723.41;;;-4.44;100.00
4586;BME280;2305;50.118;8.952;2024-01-10T04:13:59;101719.13;;;-4.47;100.00
4586;BME280;2305;50.118;8.952;2024-01-10T04:16:27;101720.00;;;-4.51;100.00
4586;BME280;2305;50.118;8.952;2024-01-10T04:18:59;101721.69;;;-4.48;100.00
4586;BME280;2305;50.118;8.952;2024-01-10T04:21:28;101725.09;;;-4.45;100.00
4586;BME280;2305;50.118;8.952;2024-01-10T04:23:59;101719.13;;;-4.47;100.00
4586;BME280;2305;50.118;8.952;2024-01-10T04:26:27;101718.28;;;-4.49;100.00
4586;BME280;2305;50.118;8.952;2024-01-10T04:28:57;101715.69;;;-4.53;100.00
4586;BME280;2305;50.118;8.952;2024-01-10T04:31:26;101720.81;;;-4.50;100.00
4586;BME280;2305;50.118;8.952;2024-01-10T04:33:54;101716.53;;;-4.51;100.00
4586;BME280;2305;50.118;8.952;2024-01-10T04:36:22;101713.09;;;-4.56;100.00
4586;BME280;2305;50.118;8.952;2024-01-10T04:38:50;101726.84;;;-4.50;100.00
4586;BME280;2305;50.118;8.952;2024-01-10T04:41:20;101725.09;;;-4.49;100.00
4586;BME280;2305;50.118;8.952;2024-01-10T04:43:49;101720.81;;;-4.46;100.00
4586;BME280;2305;50.118;8.952;2024-01-10T04:46:17;101721.69;;;-4.43;100.00
4586;BME280;2305;50.118;8.952;2024-01-10T04:48:46;101713.13;;;-4.40;100.00
4586;BME280;2305;50.118;8.952;2024-01-10T04:51:15;101719.13;;;-4.37;100.00
4586;BME280;2305;50.118;8.952;2024-01-10T04:53:43;101719.13;;;-4.38;100.00
4586;BME280;2305;50.118;8.952;2024-01-10T04:56:13;101717.41;;;-4.33;100.00
4586;BME280;2305;50.118;8.952;2024-01-10T04:58:43;101717.41;;;-4.35;100.00
4586;BME280;2305;50.118;8.952;2024-01-10T05:01:12;101716.56;;;-4.32;100.00
4586;BME280;2305;50.118;8.952;2024-01-10T05:03:41;101718.28;;;-4.34;100.00
4586;BME280;2305;50.118;8.952;2024-01-10T05:06:13;101720.84;;;-4.36;100.00
4586;BME280;2305;50.118;8.952;2024-01-10T05:08:41;101721.72;;;-4.35;100.00
4586;BME280;2305;50.118;8.952;2024-01-10T05:11:09;101726.00;;;-4.32;100.00
4586;BME280;2305;50.118;8.952;2024-01-10T05:13:38;101721.72;;;-4.35;100.00
4586;BME280;2305;50.118;8.952;2024-01-10T05:16:11;101725.13;;;-4.30;100.00
4586;BME280;2305;50.118;8.952;2024-01-10T05:18:39;101727.72;;;-4.29;100.00
4586;BME280;2305;50.118;8.952;2024-01-10T05:21:10;101717.44;;;-4.32;100.00
4586;BME280;2305;50.118;8.952;2024-01-10T05:23:38;101722.56;;;-4.30;100.00
4586;BME280;2305;50.118;8.952;2024-01-10T05:26:07;101726.88;;;-4.29;100.00
4586;BME280;2305;50.118;8.952;2024-01-10T05:28:37;101724.28;;;-4.29;100.00
4586;BME280;2305;50.118;8.952;2024-01-10T05:31:05;101724.28;;;-4.29;100.00
4586;BME280;2305;50.118;8.952;2024-01-10T05:33:36;101722.56;;;-4.29;100.00
4586;BME280;2305;50.118;8.952;2024-01-10T05:36:06;101722.56;;;-4.20;100.00
4586;BME280;2305;50.118;8.952;2024-01-10T05:38:34;101720.84;;;-4.19;100.00
4586;BME280;2305;50.118;8.952;2024-01-10T05:41:03;101714.84;;;-4.23;100.00
4586;BME280;2305;50.118;8.952;2024-01-10T05:43:31;101715.72;;;-4.28;100.00
4586;BME280;2305;50.118;8.952;2024-01-10T05:45:59;101713.97;;;-4.34;100.00
4586;BME280;2305;50.118;8.952;2024-01-10T05:48:27;101713.97;;;-4.34;100.00
4586;BME280;2305;50.118;8.952;2024-01-10T05:50:57;101718.28;;;-4.34;100.00
4586;BME280;2305;50.118;8.952;2024-01-10T05:53:25;101716.56;;;-4.32;100.00
4586;BME280;2305;50.118;8.952;2024-01-10T05:55:54;101722.56;;;-4.32;100.00
4586;BME280;2305;50.118;8.952;2024-01-10T05:58:22;101723.44;;;-4.34;100.00
4586;BME280;2305;50.118;8.952;2024-01-10T06:00:50;101720.88;;;-4.32;100.00
4586;BME280;2305;50.118;8.952;2024-01-10T06:03:18;101721.69;;;-4.38;100.00
4586;BME280;2305;50.118;8.952;2024-01-10T06:05:46;101720.84;;;-4.38;100.00
4586;BME280;2305;50.118;8.952;2024-01-10T06:08:19;101726.84;;;-4.32;100.00
4586;BME280;2305;50.118;8.952;2024-01-10T06:10:49;101724.25;;;-4.43;100.00
4586;BME280;2305;50.118;8.952;2024-01-10T06:13:20;101724.28;;;-4.41;100.00
4586;BME280;2305;50.118;8.952;2024-01-10T06:15:48;101718.28;;;-4.40;100.00
4586;BME280;2305;50.118;8.952;2024-01-10T06:18:17;101713.97;;;-4.43;100.00
4586;BME280;2305;50.118;8.952;2024-01-10T06:20:46;101716.53;;;-4.44;100.00
4586;BME280;2305;50.118;8.952;2024-01-10T06:23:15;101719.09;;;-4.44;100.00
4586;BME280;2305;50.118;8.952;2024-01-10T06:25:44;101720.81;;;-4.46;100.00
4586;BME280;2305;50.118;8.952;2024-01-10T06:28:40;101725.13;;;-4.43;100.00
4586;BME280;2305;50.118;8.952;2024-01-10T06:31:57;101714.84;;;-4.48;100.00
4586;BME280;2305;50.118;8.952;2024-01-10T06:34:28;101725.97;;;-4.46;100.00
4586;BME280;2305;50.118;8.952;2024-01-10T06:36:55;101725.97;;;-4.52;100.00
4586;BME280;2305;50.118;8.952;2024-01-10T06:39:24;101731.97;;;-4.53;100.00
4586;BME280;2305;50.118;8.952;2024-01-10T06:41:53;101731.97;;;-4.54;100.00
4586;BME280;2305;50.118;8.952;2024-01-10T06:44:21;101734.56;;;-4.41;100.00
4586;BME280;2305;50.118;8.952;2024-01-10T06:46:49;101730.28;;;-4.51;100.00
4586;BME280;2305;50.118;8.952;2024-01-10T06:49:18;101725.97;;;-4.52;100.00
4586;BME280;2305;50.118;8.952;2024-01-10T06:51:47;101722.56;;;-4.51;100.00
4586;BME280;2305;50.118;8.952;2024-01-10T06:54:17;101721.69;;;-4.53;100.00
4586;BME280;2305;50.118;8.952;2024-01-10T06:56:45;101723.38;;;-4.56;100.00
4586;BME280;2305;50.118;8.952;2024-01-10T06:59:15;101730.25;;;-4.54;100.00
4586;BME280;2305;50.118;8.952;2024-01-10T07:01:44;101728.53;;;-4.55;100.00
4586;BME280;2305;50.118;8.952;2024-01-10T07:04:12;101732.84;;;-4.48;100.00
4586;BME280;2305;50.118;8.952;2024-01-10T07:06:43;101740.56;;;-4.48;100.00
4586;BME280;2305;50.118;8.952;2024-01-10T07:09:12;101737.13;;;-4.43;100.00
4586;BME280;2305;50.118;8.952;2024-01-10T07:11:46;101740.56;;;-4.42;100.00
4586;BME280;2305;50.118;8.952;2024-01-10T07:14:19;101743.09;;;-4.45;100.00
4586;BME280;2305;50.118;8.952;2024-01-10T07:16:47;101747.41;;;-4.45;100.00
4586;BME280;2305;50.118;8.952;2024-01-10T07:19:15;101746.56;;;-4.47;100.00
4586;BME280;2305;50.118;8.952;2024-01-10T07:21:45;101746.56;;;-4.49;100.00
4586;BME280;2305;50.118;8.952;2024-01-10T07:24:14;101754.28;;;-4.43;100.00
4586;BME280;2305;50.118;8.952;2024-01-10T07:26:42;101747.41;;;-4.37;100.00
4586;BME280;2305;50.118;8.952;2024-01-10T07:29:10;101750.00;;;-4.37;100.00
4586;BME280;2305;50.118;8.952;2024-01-10T07:31:40;101754.28;;;-4.34;100.00
4586;BME280;2305;50.118;8.952;2024-01-10T07:34:08;101751.69;;;-4.37;100.00
4586;BME280;2305;50.118;8.952;2024-01-10T07:36:41;101751.72;;;-4.31;100.00
4586;BME280;2305;50.118;8.952;2024-01-10T07:39:10;101755.16;;;-4.29;100.00
4586;BME280;2305;50.118;8.952;2024-01-10T07:41:43;101756.00;;;-4.29;100.00
4586;BME280;2305;50.118;8.952;2024-01-10T07:44:11;101760.28;;;-4.26;100.00
4586;BME280;2305;50.118;8.952;2024-01-10T07:46:41;101759.44;;;-4.21;100.00
4586;BME280;2305;50.118;8.952;2024-01-10T07:49:09;101764.59;;;-4.19;100.00
4586;BME280;2305;50.118;8.952;2024-01-10T07:51:37;101764.59;;;-4.09;100.00
4586;BME280;2305;50.118;8.952;2024-01-10T07:54:05;101761.16;;;-4.08;100.00
4586;BME280;2305;50.118;8.952;2024-01-10T07:56:33;101768.88;;;-4.03;100.00
4586;BME280;2305;50.118;8.952;2024-01-10T07:59:02;101766.34;;;-4.00;100.00
4586;BME280;2305;50.118;8.952;2024-01-10T08:01:32;101770.59;;;-3.96;100.00
4586;BME280;2305;50.118;8.952;2024-01-10T08:04:02;101774.91;;;-3.91;100.00
4586;BME280;2305;50.118;8.952;2024-01-10T08:06:31;101785.19;;;-3.79;100.00
4586;BME280;2305;50.118;8.952;2024-01-10T08:09:01;101794.66;;;-3.84;100.00
4586;BME280;2305;50.118;8.952;2024-01-10T08:11:31;101792.06;;;-3.79;100.00
4586;BME280;2305;50.118;8.952;2024-01-10T08:14:02;101795.50;;;-3.77;100.00
4586;BME280;2305;50.118;8.952;2024-01-10T08:16:31;101801.50;;;-3.74;100.00
4586;BME280;2305;50.118;8.952;2024-01-10T08:18:59;101798.06;;;-3.68;100.00
4586;BME280;2305;50.118;8.952;2024-01-10T08:21:29;101795.47;;;-3.59;100.00
4586;BME280;2305;50.118;8.952;2024-01-10T08:23:57;101786.91;;;-3.54;100.00
4586;BME280;2305;50.118;8.952;2024-01-10T08:26:26;101793.75;;;-3.36;100.00
4586;BME280;2305;50.118;8.952;2024-01-10T08:28:55;101797.16;;;-3.30;100.00
4586;BME280;2305;50.118;8.952;2024-01-10T08:31:25;101792.00;;;-3.30;100.00
4586;BME280;2305;50.118;8.952;2024-01-10T08:33:56;101790.28;;;-3.29;100.00
4586;BME280;2305;50.118;8.952;2024-01-10T08:36:24;101795.44;;;-3.23;100.00
4586;BME280;2305;50.118;8.952;2024-01-10T08:38:54;101791.97;;;-3.19;100.00
4586;BME280;2305;50.118;8.952;2024-01-10T08:41:22;101788.50;;;-3.14;100.00
4586;BME280;2305;50.118;8.952;2024-01-10T08:43:50;101787.66;;;-3.11;100.00
4586;BME280;2305;50.118;8.952;2024-01-10T08:46:18;101792.78;;;-3.01;100.00
4586;BME280;2305;50.118;8.952;2024-01-10T08:48:47;101791.91;;;-2.98;100.00
4586;BME280;2305;50.118;8.952;2024-01-10T08:51:16;101791.03;;;-2.90;100.00
4586;BME280;2305;50.118;8.952;2024-01-10T08:53:44;101780.72;;;-2.90;100.00
4586;BME280;2305;50.118;8.952;2024-01-10T08:56:16;101791.00;;;-2.88;100.00
4586;BME280;2305;50.118;8.952;2024-01-10T08:58:44;101788.44;;;-2.88;100.00
4586;BME280;2305;50.118;8.952;2024-01-10T09:01:13;101785.00;;;-2.90;100.00
4586;BME280;2305;50.118;8.952;2024-01-10T09:03:43;101791.03;;;-2.93;100.00
4586;BME280;2305;50.118;8.952;2024-01-10T09:06:11;101793.53;;;-2.78;100.00
4586;BME280;2305;50.118;8.952;2024-01-10T09:08:40;101798.75;;;-2.84;100.00
4586;BME280;2305;50.118;8.952;2024-01-10T09:11:08;101807.31;;;-2.83;100.00
4586;BME280;2305;50.118;8.952;2024-01-10T09:13:38;101803.88;;;-2.81;100.00
4586;BME280;2305;50.118;8.952;2024-01-10T09:16:07;101808.16;;;-2.78;100.00
4586;BME280;2305;50.118;8.952;2024-01-10T09:18:37;101812.47;;;-2.77;100.00
4586;BME280;2305;50.118;8.952;2024-01-10T09:21:08;101802.16;;;-2.76;100.00
4586;BME280;2305;50.118;8.952;2024-01-10T09:23:37;101814.13;;;-2.67;100.00
4586;BME280;2305;50.118;8.952;2024-01-10T09:26:07;101810.72;;;-2.69;100.00
4586;BME280;2305;50.118;8.952;2024-01-10T09:28:38;101818.41;;;-2.63;100.00
4586;BME280;2305;50.118;8.952;2024-01-10T09:31:07;101818.41;;;-2.59;100.00
4586;BME280;2305;50.118;8.952;2024-01-10T09:33:37;101815.78;;;-2.53;100.00
4586;BME280;2305;50.118;8.952;2024-01-10T09:36:06;101824.38;;;-2.51;100.00
4586;BME280;2305;50.118;8.952;2024-01-10T09:38:35;101817.47;;;-2.46;100.00
4586;BME280;2305;50.118;8.952;2024-01-10T09:41:04;101816.59;;;-2.39;100.00
4586;BME280;2305;50.118;8.952;2024-01-10T09:43:39;101819.09;;;-2.28;100.00
4586;BME280;2305;50.118;8.952;2024-01-10T09:46:07;101816.47;;;-2.19;100.00
4586;BME280;2305;50.118;8.952;2024-01-10T09:48:37;101822.47;;;-2.14;100.00
4586;BME280;2305;50.118;8.952;2024-01-10T09:51:06;101813.78;;;-2.04;100.00
4586;BME280;2305;50.118;8.952;2024-01-10T09:53:35;101814.63;;;-1.99;100.00
4586;BME280;2305;50.118;8.952;2024-01-10T09:56:09;101817.06;;;-1.83;100.00
4586;BME280;2305;50.118;8.952;2024-01-10T09:58:43;101817.09;;;-1.84;100.00
4586;BME280;2305;50.118;8.952;2024-01-10T10:01:13;101815.28;;;-1.76;100.00
4586;BME280;2305;50.118;8.952;2024-01-10T10:03:45;101814.41;;;-1.72;100.00
4586;BME280;2305;50.118;8.952;2024-01-10T10:06:14;101816.09;;;-1.67;100.00
4586;BME280;2305;50.118;8.952;2024-01-10T10:08:42;101820.38;;;-1.67;100.00
4586;BME280;2305;50.118;8.952;2024-01-10T10:11:12;101813.50;;;-1.65;100.00
4586;BME280;2305;50.118;8.952;2024-01-10T10:13:42;101819.53;;;-1.66;100.00
4586;BME280;2305;50.118;8.952;2024-01-10T10:16:10;101812.56;;;-1.58;100.00
4586;BME280;2305;50.118;8.952;2024-01-10T10:18:40;101815.94;;;-1.53;100.00
4586;BME280;2305;50.118;8.952;2024-01-10T10:21:14;101815.06;;;-1.48;100.00
4586;BME280;2305;50.118;8.952;2024-01-10T10:23:43;101807.25;;;-1.42;100.00
4586;BME280;2305;50.118;8.952;2024-01-10T10:26:27;101810.63;;;-1.34;100.00
4586;BME280;2305;50.118;8.952;2024-01-10T10:28:58;101809.72;;;-1.30;100.00
4586;BME280;2305;50.118;8.952;2024-01-10T10:31:27;101804.50;;;-1.25;100.00
4586;BME280;2305;50.118;8.952;2024-01-10T10:33:58;101802.72;;;-1.20;100.00
4586;BME280;2305;50.118;8.952;2024-01-10T10:36:30;101793.22;;;-1.17;100.00
4586;BME280;2305;50.118;8.952;2024-01-10T10:39:03;101792.28;;;-1.11;100.00
4586;BME280;2305;50.118;8.952;2024-01-10T10:41:33;101796.56;;;-1.07;100.00
4586;BME280;2305;50.118;8.952;2024-01-10T10:44:08;101787.84;;;-0.99;100.00
4586;BME280;2305;50.118;8.952;2024-01-10T10:46:38;101791.25;;;-0.95;100.00
4586;BME280;2305;50.118;8.952;2024-01-10T10:49:12;101792.84;;;-0.87;100.00
4586;BME280;2305;50.118;8.952;2024-01-10T10:51:41;101785.84;;;-0.79;100.00
4586;BME280;2305;50.118;8.952;2024-01-10T10:54:10;101775.50;;;-0.77;100.00
4586;BME280;2305;50.118;8.952;2024-01-10T10:56:40;101768.47;;;-0.68;100.00
4586;BME280;2305;50.118;8.952;2024-01-10T10:59:15;101771.00;;;-0.65;100.00
4586;BME280;2305;50.118;8.952;2024-01-10T11:01:47;101777.94;;;-0.65;100.00
4586;BME280;2305;50.118;8.952;2024-01-10T11:04:19;101769.34;;;-0.67;100.00
4586;BME280;2305;50.118;8.952;2024-01-10T11:06:48;101776.31;;;-0.72;100.00
4586;BME280;2305;50.118;8.952;2024-01-10T11:09:18;101766.84;;;-0.76;100.00
4586;BME280;2305;50.118;8.952;2024-01-10T11:12:01;101765.94;;;-0.71;100.00
4586;BME280;2305;50.118;8.952;2024-01-10T11:14:43;101766.72;;;-0.64;100.00
4586;BME280;2305;50.118;8.952;2024-01-10T11:17:28;101763.25;;;-0.65;100.00
4586;BME280;2305;50.118;8.952;2024-01-10T11:20:18;101764.06;;;-0.61;100.00
4586;BME280;2305;50.118;8.952;2024-01-10T11:23:02;101760.56;;;-0.57;100.00
4586;BME280;2305;50.118;8.952;2024-01-10T11:25:35;101757.03;;;-0.50;100.00
4586;BME280;2305;50.118;8.952;2024-01-10T11:28:07;101750.88;;;-0.43;100.00
4586;BME280;2305;50.118;8.952;2024-01-10T11:30:48;101744.59;;;-0.26;100.00
4586;BME280;2305;50.118;8.952;2024-01-10T11:33:21;101741.75;;;-0.11;100.00
4586;BME280;2305;50.118;8.952;2024-01-10T11:36:06;101752.50;;;0.19;100.00
4586;BME280;2305;50.118;8.952;2024-01-10T11:38:44;101744.47;;;0.34;100.00
4586;BME280;2305;50.118;8.952;2024-01-10T11:41:20;101740.38;;;0.68;100.00
4586;BME280;2305;50.118;8.952;2024-01-10T11:44:25;101730.13;;;1.05;100.00
4586;BME280;2305;50.118;8.952;2024-01-10T11:46:58;101733.13;;;1.26;95.81
4586;BME280;2305;50.118;8.952;2024-01-10T11:49:28;101736.97;;;1.48;94.25
4586;BME280;2305;50.118;8.952;2024-01-10T11:52:02;101737.53;;;1.62;90.58
4586;BME280;2305;50.118;8.952;2024-01-10T11:54:43;101736.84;;;1.54;88.81
4586;BME280;2305;50.118;8.952;2024-01-10T11:57:19;101730.22;;;1.40;88.66
4586;BME280;2305;50.118;8.952;2024-01-10T11:59:51;101737.47;;;1.26;89.33
4586;BME280;2305;50.118;8.952;2024-01-10T12:02:22;101735.16;;;1.14;86.91
4586;BME280;2305;50.118;8.952;2024-01-10T12:04:53;101730.44;;;0.88;87.50
4586;BME280;2305;50.118;8.952;2024-01-10T12:07:21;101731.50;;;0.80;90.27
4586;BME280;2305;50.118;8.952;2024-01-10T12:09:51;101735.03;;;0.74;93.18
4586;BME280;2305;50.118;8.952;2024-01-10T12:12:19;101734.03;;;0.83;92.64
4586;BME280;2305;50.118;8.952;2024-01-10T12:14:50;101731.41;;;0.84;92.79
4586;BME280;2305;50.118;8.952;2024-01-10T12:17:18;101723.66;;;0.81;92.61
4586;BME280;2305;50.118;8.952;2024-01-10T12:19:48;101724.69;;;0.74;92.68
4586;BME280;2305;50.118;8.952;2024-01-10T12:22:16;101724.69;;;0.74;93.64
4586;BME280;2305;50.118;8.952;2024-01-10T12:24:47;101723.81;;;0.75;94.17
4586;BME280;2305;50.118;8.952;2024-01-10T12:27:17;101717.56;;;0.85;95.13
4586;BME280;2305;50.118;8.952;2024-01-10T12:29:50;101717.31;;;0.97;94.42
4586;BME280;2305;50.118;8.952;2024-01-10T12:32:21;101718.91;;;1.03;95.02
4586;BME280;2305;50.118;8.952;2024-01-10T12:34:59;101711.13;;;1.04;93.50
4586;BME280;2305;50.118;8.952;2024-01-10T12:37:28;101709.41;;;1.03;93.92
4586;BME280;2305;50.118;8.952;2024-01-10T12:39:56;101709.41;;;1.03;93.40
4586;BME280;2305;50.118;8.952;2024-01-10T12:42:25;101709.41;;;1.03;94.46
4586;BME280;2305;50.118;8.952;2024-01-10T12:44:53;101711.91;;;1.08;94.33
4586;BME280;2305;50.118;8.952;2024-01-10T12:47:22;101716.97;;;1.14;95.13
4586;BME280;2305;50.118;8.952;2024-01-10T12:49:53;101710.72;;;1.22;96.25
4586;BME280;2305;50.118;8.952;2024-01-10T12:52:23;101709.47;;;1.40;96.44
4586;BME280;2305;50.118;8.952;2024-01-10T12:54:54;101708.59;;;1.77;92.62
4586;BME280;2305;50.118;8.952;2024-01-10T12:57:22;101703.31;;;2.15;90.60
4586;BME280;2305;50.118;8.952;2024-01-10T12:59:51;101703.09;;;2.56;86.30
4586;BME280;2305;50.118;8.952;2024-01-10T13:02:21;101703.88;;;2.90;82.64
4586;BME280;2305;50.118;8.952;2024-01-10T13:04:52;101691.78;;;3.17;79.66
4586;BME280;2305;50.118;8.952;2024-01-10T13:07:20;101698.81;;;3.42;78.80
4586;BME280;2305;50.118;8.952;2024-01-10T13:09:50;101694.38;;;3.73;75.65
4586;BME280;2305;50.118;8.952;2024-01-10T13:12:23;101688.88;;;3.82;73.50
4586;BME280;2305;50.118;8.952;2024-01-10T13:14:50;101686.56;;;3.73;72.44
4586;BME280;2305;50.118;8.952;2024-01-10T13:17:21;101684.69;;;3.51;73.63